createdAt,value
2017-10-25T00:01:34.400Z,12.40
2017-10-25T00:04:02.747Z,12.40
2017-10-25T00:06:31.069Z,12.40
2017-10-25T00:08:59.392Z,12.40
2017-10-25T00:11:27.763Z,12.40
2017-10-25T00:13:56.095Z,12.50
2017-10-25T00:16:24.447Z,12.40
2017-10-25T00:18:53.516Z,12.40
2017-10-25T00:21:21.809Z,12.40
2017-10-25T00:23:50.131Z,12.40
2017-10-25T00:26:19.243Z,12.30
2017-10-25T00:28:48.329Z,12.30
2017-10-25T00:31:16.655Z,12.30
2017-10-25T00:33:45.746Z,12.40
2017-10-25T00:36:14.038Z,12.40
2017-10-25T00:38:43.098Z,12.40
2017-10-25T00:41:11.416Z,12.40
2017-10-25T00:43:40.227Z,12.40
2017-10-25T00:46:10.030Z,12.30
2017-10-25T00:48:38.534Z,12.30
2017-10-25T00:51:06.871Z,12.40
2017-10-25T00:53:35.163Z,12.40
2017-10-25T00:56:04.253Z,12.50
2017-10-25T00:58:33.377Z,12.40
2017-10-25T01:01:01.709Z,12.40
2017-10-25T01:03:30.035Z,12.50
2017-10-25T01:05:59.127Z,12.50
2017-10-25T01:08:28.959Z,12.60
2017-10-25T01:10:58.755Z,12.60
2017-10-25T01:13:27.106Z,12.60
2017-10-25T01:15:55.441Z,12.60
2017-10-25T01:18:23.754Z,12.60
2017-10-25T01:20:53.584Z,12.70
2017-10-25T01:23:22.638Z,12.60
2017-10-25T01:25:50.971Z,12.60
2017-10-25T01:28:20.781Z,12.70
2017-10-25T01:30:49.060Z,12.70
2017-10-25T01:33:17.374Z,12.70
2017-10-25T01:35:47.200Z,12.70
2017-10-25T01:38:16.991Z,12.80
2017-10-25T01:40:45.306Z,12.80
2017-10-25T01:43:15.133Z,12.70
2017-10-25T01:45:43.445Z,12.70
2017-10-25T01:48:12.536Z,12.80
2017-10-25T01:50:42.363Z,12.80
2017-10-25T01:53:11.455Z,12.80
2017-10-25T01:55:39.778Z,12.80
2017-10-25T01:58:08.879Z,12.80
2017-10-25T02:00:37.940Z,12.80
2017-10-25T02:03:06.273Z,12.80
2017-10-25T02:05:35.323Z,12.80
2017-10-25T02:08:03.650Z,12.80
2017-10-25T02:10:31.941Z,12.90
2017-10-25T02:13:00.239Z,12.90
2017-10-25T02:15:30.071Z,12.90
2017-10-25T02:17:59.188Z,12.90
2017-10-25T02:20:28.235Z,12.90
2017-10-25T02:22:56.515Z,12.90
2017-10-25T02:25:24.833Z,12.90
2017-10-25T02:27:53.112Z,12.90
2017-10-25T02:30:21.436Z,12.90
2017-10-25T02:32:50.488Z,12.90
2017-10-25T02:35:18.804Z,12.90
2017-10-25T02:37:47.091Z,12.90
2017-10-25T02:40:15.416Z,12.90
2017-10-25T02:42:45.205Z,12.90
2017-10-25T02:45:13.523Z,12.90
2017-10-25T02:47:43.334Z,13.00
2017-10-25T02:50:11.656Z,13.00
2017-10-25T02:52:40.754Z,12.90
2017-10-25T02:55:09.857Z,13.00
2017-10-25T02:57:39.683Z,12.90
2017-10-25T03:00:07.994Z,12.90
2017-10-25T03:02:37.062Z,13.00
2017-10-25T03:05:06.919Z,12.90
2017-10-25T03:07:35.978Z,13.00
2017-10-25T03:10:04.272Z,13.00
2017-10-25T03:12:32.626Z,13.10
2017-10-25T03:15:01.723Z,13.10
2017-10-25T03:17:30.789Z,13.10
2017-10-25T03:19:59.108Z,13.10
2017-10-25T03:22:28.202Z,13.20
2017-10-25T03:24:58.031Z,13.20
2017-10-25T03:27:27.847Z,13.20
2017-10-25T03:29:56.184Z,13.20
2017-10-25T03:32:24.499Z,13.20
2017-10-25T03:34:52.786Z,13.20
2017-10-25T03:37:21.112Z,13.20
2017-10-25T03:39:50.963Z,13.20
2017-10-25T03:42:20.017Z,13.20
2017-10-25T03:44:48.307Z,13.10
2017-10-25T03:47:16.672Z,13.20
2017-10-25T03:49:44.963Z,13.30
2017-10-25T03:52:13.251Z,13.30
2017-10-25T03:54:41.569Z,13.30
2017-10-25T03:57:09.895Z,13.20
2017-10-25T03:59:38.964Z,13.20
2017-10-25T04:02:07.280Z,13.20
2017-10-25T04:04:35.614Z,13.30
2017-10-25T04:07:03.921Z,13.30
2017-10-25T04:09:32.230Z,13.40
2017-10-25T04:12:00.550Z,13.30
2017-10-25T04:14:29.616Z,13.30
2017-10-25T04:16:57.953Z,13.30
2017-10-25T04:19:27.013Z,13.30
2017-10-25T04:21:55.371Z,13.30
2017-10-25T04:24:23.660Z,13.30
2017-10-25T04:26:51.961Z,13.40
2017-10-25T04:29:20.284Z,13.30
2017-10-25T04:31:50.110Z,13.30
2017-10-25T04:34:18.418Z,13.30
2017-10-25T04:36:47.528Z,13.30
2017-10-25T04:39:16.617Z,13.40
2017-10-25T04:41:44.918Z,13.40
2017-10-25T04:44:14.772Z,13.40
2017-10-25T04:46:43.836Z,13.30
2017-10-25T04:49:12.139Z,13.30
2017-10-25T04:51:41.970Z,13.30
2017-10-25T04:54:11.062Z,13.30
2017-10-25T04:56:39.387Z,13.30
2017-10-25T04:59:08.462Z,13.30
2017-10-25T05:01:38.301Z,13.40
2017-10-25T05:04:08.143Z,13.40
2017-10-25T05:06:37.207Z,13.50
2017-10-25T05:09:05.522Z,13.50
2017-10-25T05:11:35.355Z,13.50
2017-10-25T05:14:04.434Z,13.60
2017-10-25T05:16:32.746Z,13.60
2017-10-25T05:19:01.864Z,13.60
2017-10-25T05:21:30.927Z,13.60
2017-10-25T05:23:59.234Z,13.60
2017-10-25T05:26:29.083Z,13.50
2017-10-25T05:28:58.192Z,13.50
2017-10-25T05:31:27.274Z,13.60
2017-10-25T05:33:55.596Z,13.60
2017-10-25T05:36:24.691Z,13.60
2017-10-25T05:38:54.524Z,13.60
2017-10-25T05:41:23.606Z,13.60
2017-10-25T05:43:51.937Z,13.60
2017-10-25T05:46:21.027Z,13.70
2017-10-25T05:48:50.122Z,13.70
2017-10-25T05:51:18.460Z,13.70
2017-10-25T05:53:46.747Z,13.70
2017-10-25T05:56:15.404Z,13.70
2017-10-25T05:58:45.238Z,13.70
2017-10-25T06:01:14.306Z,13.70
2017-10-25T06:03:42.628Z,13.70
2017-10-25T06:06:11.692Z,13.70
2017-10-25T06:08:40.024Z,13.70
2017-10-25T06:11:09.131Z,13.80
2017-10-25T06:13:38.938Z,13.80
2017-10-25T06:16:07.270Z,13.80
2017-10-25T06:18:36.337Z,13.80
2017-10-25T06:21:04.739Z,13.80
2017-10-25T06:23:34.550Z,13.80
2017-10-25T06:26:02.910Z,13.80
2017-10-25T06:28:31.995Z,13.90
2017-10-25T06:31:00.288Z,13.90
2017-10-25T06:33:28.640Z,14.00
2017-10-25T06:35:58.436Z,13.90
2017-10-25T06:38:26.740Z,14.00
2017-10-25T06:40:55.081Z,14.00
2017-10-25T06:43:23.429Z,14.00
2017-10-25T06:45:51.752Z,14.00
2017-10-25T06:48:20.818Z,14.00
2017-10-25T06:50:49.174Z,14.00
2017-10-25T06:53:17.475Z,14.10
2017-10-25T06:55:45.822Z,14.10
2017-10-25T06:58:14.901Z,14.10
2017-10-25T07:00:43.199Z,14.10
2017-10-25T07:03:13.951Z,14.10
2017-10-25T07:05:43.101Z,14.10
2017-10-25T07:08:12.374Z,14.20
2017-10-25T07:10:41.435Z,14.20
2017-10-25T07:13:09.780Z,14.20
2017-10-25T07:15:38.848Z,14.20
2017-10-25T07:18:07.163Z,14.20
2017-10-25T07:20:36.965Z,14.30
2017-10-25T07:23:05.296Z,14.30
2017-10-25T07:25:34.410Z,14.40
2017-10-25T07:28:03.463Z,14.40
2017-10-25T07:30:31.790Z,14.40
2017-10-25T07:33:00.893Z,14.50
2017-10-25T07:35:29.176Z,14.40
2017-10-25T07:37:57.498Z,14.50
2017-10-25T07:40:26.592Z,14.60
2017-10-25T07:42:55.690Z,14.50
2017-10-25T07:45:24.782Z,14.60
2017-10-25T07:47:53.123Z,14.50
2017-10-25T07:50:22.179Z,14.60
2017-10-25T07:52:50.472Z,14.60
2017-10-25T07:55:18.807Z,14.60
2017-10-25T07:57:47.114Z,14.60
2017-10-25T08:00:15.446Z,14.80
2017-10-25T08:02:43.747Z,14.80
2017-10-25T08:05:12.828Z,14.90
2017-10-25T08:07:41.155Z,14.90
2017-10-25T08:10:10.222Z,15.10
2017-10-25T08:12:38.547Z,15.10
2017-10-25T08:15:07.650Z,15.10
2017-10-25T08:17:36.742Z,15.10
2017-10-25T08:20:06.560Z,15.10
2017-10-25T08:22:35.271Z,15.10
2017-10-25T08:25:03.588Z,15.10
2017-10-25T08:27:34.698Z,15.40
2017-10-25T08:30:04.550Z,15.40
2017-10-25T08:32:33.686Z,15.50
2017-10-25T08:35:02.016Z,15.50
2017-10-25T08:37:30.331Z,15.50
2017-10-25T08:39:59.413Z,15.50
2017-10-25T08:42:27.771Z,15.40
2017-10-25T08:44:56.063Z,15.50
2017-10-25T08:47:24.531Z,15.50
2017-10-25T08:49:52.853Z,15.50
2017-10-25T08:52:21.178Z,15.60
2017-10-25T08:54:50.978Z,15.70
2017-10-25T08:57:19.322Z,15.70
2017-10-25T08:59:48.425Z,15.70
2017-10-25T09:02:17.566Z,15.80
2017-10-25T09:04:45.860Z,15.70
2017-10-25T09:07:14.196Z,15.80
2017-10-25T09:09:43.304Z,15.80
2017-10-25T09:12:12.366Z,15.80
2017-10-25T09:14:40.699Z,15.80
2017-10-25T09:17:10.536Z,15.90
2017-10-25T09:19:39.610Z,15.90
2017-10-25T09:22:07.887Z,15.90
2017-10-25T09:24:36.245Z,15.90
2017-10-25T09:27:04.574Z,15.90
2017-10-25T09:29:32.855Z,16.00
2017-10-25T09:32:01.195Z,16.00
2017-10-25T09:34:30.292Z,15.90
2017-10-25T09:37:00.127Z,15.90
2017-10-25T09:39:29.188Z,15.90
2017-10-25T09:41:57.514Z,15.90
2017-10-25T09:44:26.596Z,15.80
2017-10-25T09:46:54.909Z,15.80
2017-10-25T09:49:24.743Z,15.90
2017-10-25T09:51:53.803Z,15.90
2017-10-25T09:54:22.122Z,15.90
2017-10-25T09:56:51.380Z,15.90
2017-10-25T09:59:21.283Z,16.00
2017-10-25T10:01:50.350Z,16.00
2017-10-25T10:04:18.635Z,16.00
2017-10-25T10:06:46.961Z,16.20
2017-10-25T10:09:16.751Z,16.40
2017-10-25T10:33:15.316Z,16.80
2017-10-25T10:35:44.427Z,16.90
2017-10-25T10:38:13.514Z,16.90
2017-10-25T10:56:27.662Z,17.30
2017-10-25T10:58:56.721Z,17.20
2017-10-25T11:01:25.316Z,17.20
2017-10-25T11:03:54.020Z,17.20
2017-10-25T11:06:22.294Z,17.20
2017-10-25T11:08:50.575Z,17.30
2017-10-25T11:11:18.903Z,17.50
2017-10-25T11:13:48.713Z,17.40
2017-10-25T11:16:16.987Z,17.40
2017-10-25T11:18:45.309Z,17.60
2017-10-25T11:21:15.119Z,17.50
2017-10-25T11:23:43.427Z,17.50
2017-10-25T11:26:11.767Z,17.40
2017-10-25T11:28:40.059Z,17.20
2017-10-25T11:31:08.348Z,17.20
2017-10-25T11:33:36.657Z,17.20
2017-10-25T11:36:04.975Z,17.30
2017-10-25T11:38:33.635Z,17.30
2017-10-25T11:41:01.916Z,17.40
2017-10-25T11:43:31.545Z,17.40
2017-10-25T11:49:26.690Z,17.50
2017-10-25T11:52:00.223Z,17.60
2017-10-25T11:54:28.542Z,17.70
2017-10-25T11:56:58.367Z,17.80
2017-10-25T11:59:26.690Z,17.80
2017-10-25T12:01:54.976Z,17.80
2017-10-25T12:04:24.036Z,17.60
2017-10-25T12:06:52.347Z,17.60
2017-10-25T12:09:22.131Z,17.70
2017-10-25T12:11:50.453Z,17.70
2017-10-25T12:14:20.268Z,17.90
2017-10-25T12:16:48.610Z,17.90
2017-10-25T12:19:16.894Z,18.00
2017-10-25T12:21:46.088Z,18.00
2017-10-25T12:24:15.151Z,18.10
2017-10-25T12:26:43.462Z,18.10
2017-10-25T12:29:13.291Z,18.10
2017-10-25T12:31:41.581Z,18.10
2017-10-25T12:34:11.379Z,18.10
2017-10-25T12:36:39.703Z,18.10
2017-10-25T12:39:08.768Z,18.00
2017-10-25T12:41:37.063Z,17.90
2017-10-25T12:44:05.379Z,18.00
2017-10-25T12:46:34.564Z,18.00
2017-10-25T12:49:02.879Z,18.00
2017-10-25T12:51:32.671Z,18.00
2017-10-25T12:54:00.997Z,18.00
2017-10-25T12:56:30.787Z,18.10
2017-10-25T12:58:59.107Z,18.20
2017-10-25T13:01:28.939Z,18.00
2017-10-25T13:03:58.741Z,18.10
2017-10-25T13:06:27.026Z,18.10
2017-10-25T13:08:55.335Z,18.20
2017-10-25T13:11:25.204Z,18.20
2017-10-25T13:13:54.484Z,18.30
2017-10-25T13:16:25.176Z,18.20
2017-10-25T13:18:54.166Z,18.30
2017-10-25T13:21:22.452Z,18.10
2017-10-25T13:23:50.782Z,18.20
2017-10-25T13:26:19.092Z,18.30
2017-10-25T13:28:47.424Z,18.20
2017-10-25T13:31:15.715Z,18.30
2017-10-25T13:33:44.040Z,18.30
2017-10-25T13:36:12.361Z,18.20
2017-10-25T13:38:40.675Z,18.30
2017-10-25T13:41:08.972Z,18.30
2017-10-25T13:43:37.307Z,18.20
2017-10-25T13:46:05.588Z,18.20
2017-10-25T13:48:33.877Z,18.10
2017-10-25T13:51:02.192Z,18.00
2017-10-25T13:53:30.476Z,18.00
2017-10-25T13:55:58.810Z,17.70
2017-10-25T13:58:27.099Z,17.70
2017-10-25T14:00:55.414Z,17.70
2017-10-25T14:03:23.702Z,17.80
2017-10-25T14:05:52.023Z,17.70
2017-10-25T14:08:20.311Z,17.60
2017-10-25T14:10:48.643Z,17.40
2017-10-25T14:13:16.935Z,17.40
2017-10-25T14:15:45.244Z,17.40
2017-10-25T14:18:13.539Z,17.50
2017-10-25T14:20:41.862Z,17.50
2017-10-25T14:23:10.187Z,17.50
2017-10-25T14:25:40.163Z,17.50
2017-10-25T14:28:20.322Z,17.50
2017-10-25T14:30:48.647Z,17.40
2017-10-25T14:33:18.467Z,17.30
2017-10-25T14:35:48.264Z,17.40
2017-10-25T14:38:16.583Z,17.40
2017-10-25T14:40:46.413Z,17.40
2017-10-25T14:43:16.199Z,17.40
2017-10-25T14:45:44.526Z,17.40
2017-10-25T14:48:14.334Z,17.50
2017-10-25T14:50:42.650Z,17.50
2017-10-25T14:53:11.841Z,17.50
2017-10-25T14:55:40.259Z,17.50
2017-10-25T14:58:09.316Z,17.40
2017-10-25T15:00:37.600Z,17.40
2017-10-25T15:03:05.930Z,17.40
2017-10-25T15:05:34.266Z,17.40
2017-10-25T15:08:03.310Z,17.30
2017-10-25T15:10:33.572Z,17.20
2017-10-25T15:13:03.369Z,17.10
2017-10-25T15:15:31.683Z,17.10
2017-10-25T15:18:01.523Z,17.20
2017-10-25T15:20:30.613Z,17.20
2017-10-25T15:23:00.443Z,17.20
2017-10-25T15:31:34.296Z,17.20
2017-10-25T15:34:02.623Z,17.10
2017-10-25T15:36:31.000Z,17.10
2017-10-25T15:38:59.322Z,17.10
2017-10-25T15:41:28.619Z,17.00
2017-10-25T15:43:58.447Z,16.90
2017-10-25T15:46:26.802Z,16.90
2017-10-25T15:48:55.167Z,16.90
2017-10-25T15:51:23.501Z,17.00
2017-10-25T15:53:51.795Z,16.90
2017-10-25T15:56:21.215Z,16.90
2017-10-25T15:58:49.701Z,16.80
2017-10-25T16:01:17.984Z,16.90
2017-10-25T16:03:46.308Z,16.90
2017-10-25T16:06:14.600Z,16.80
2017-10-25T16:08:43.695Z,16.80
2017-10-25T16:11:12.013Z,16.80
2017-10-25T16:16:28.746Z,16.80
2017-10-25T16:18:58.568Z,16.70
2017-10-25T16:21:28.365Z,16.70
2017-10-25T16:23:56.696Z,16.70
2017-10-25T16:26:25.790Z,16.60
2017-10-25T16:28:54.075Z,16.50
2017-10-25T16:31:23.905Z,16.50
2017-10-25T16:33:53.729Z,16.50
2017-10-25T16:36:23.551Z,16.50
2017-10-25T16:38:52.630Z,16.40
2017-10-25T16:41:20.961Z,16.40
2017-10-25T16:43:50.011Z,16.40
2017-10-25T16:46:18.327Z,16.40
2017-10-25T16:48:46.621Z,16.30
2017-10-25T16:51:14.939Z,16.20
2017-10-25T16:53:44.047Z,15.70
2017-10-25T16:56:13.833Z,15.40
2017-10-25T16:58:42.153Z,15.40
2017-10-25T17:01:11.960Z,15.10
2017-10-25T17:03:40.278Z,15.10
2017-10-25T17:06:09.366Z,14.90
2017-10-25T17:08:37.684Z,14.80
2017-10-25T17:11:06.745Z,14.70
2017-10-25T17:13:35.066Z,14.70
2017-10-25T17:16:04.169Z,14.70
2017-10-25T17:18:34.013Z,14.60
2017-10-25T17:21:03.059Z,14.60
2017-10-25T17:23:31.392Z,14.60
2017-10-25T17:26:00.494Z,14.50
2017-10-25T17:28:28.794Z,14.50
2017-10-25T17:30:57.082Z,14.60
2017-10-25T17:33:26.366Z,14.50
2017-10-25T18:51:24.333Z,14.80
2017-10-25T18:53:52.719Z,14.80
2017-10-25T18:56:21.019Z,14.80
2017-10-25T18:58:49.326Z,14.80
2017-10-25T19:01:19.130Z,14.80
2017-10-25T19:03:47.456Z,14.80
2017-10-25T19:06:16.723Z,14.90
2017-10-25T19:08:45.030Z,14.80
2017-10-25T19:11:13.381Z,14.90
2017-10-25T19:13:41.695Z,14.90
2017-10-25T19:16:10.835Z,15.00
2017-10-25T19:18:39.154Z,15.00
2017-10-25T19:21:08.198Z,14.90
2017-10-25T19:23:36.523Z,14.80
2017-10-25T19:26:06.322Z,14.70
2017-10-25T19:28:34.635Z,14.70
2017-10-25T19:31:04.440Z,14.70
2017-10-25T19:33:32.751Z,14.70
2017-10-25T19:36:01.040Z,14.70
2017-10-25T19:38:30.868Z,14.70
2017-10-25T19:40:59.183Z,14.60
2017-10-25T19:43:27.465Z,14.60
2017-10-25T19:45:56.555Z,14.60
2017-10-25T19:48:25.642Z,14.50
2017-10-25T19:50:53.933Z,14.50
2017-10-25T19:53:22.247Z,14.40
2017-10-25T19:55:51.307Z,14.40
2017-10-25T19:58:19.641Z,14.40
2017-10-25T20:00:49.500Z,14.30
2017-10-25T20:03:17.786Z,14.20
2017-10-25T20:05:46.927Z,14.10
2017-10-25T20:08:17.216Z,14.10
2017-10-25T20:10:46.295Z,14.00
2017-10-25T20:13:16.127Z,13.90
2017-10-25T20:15:45.214Z,14.00
2017-10-25T20:18:13.497Z,13.90
2017-10-25T20:20:41.816Z,13.90
2017-10-25T20:23:11.604Z,13.90
2017-10-25T20:25:39.940Z,13.90
2017-10-25T20:28:08.992Z,13.90
2017-10-25T20:30:37.292Z,13.90
2017-10-25T20:33:05.608Z,13.90
2017-10-25T20:35:35.404Z,13.80
2017-10-25T20:38:03.720Z,13.80
2017-10-25T20:40:33.556Z,13.80
2017-10-25T20:43:01.837Z,13.80
2017-10-25T20:45:31.666Z,14.00
2017-10-25T20:48:02.174Z,14.00
2017-10-25T20:50:31.519Z,14.00
2017-10-25T20:53:01.357Z,13.90
2017-10-25T20:55:31.174Z,13.90
2017-10-25T20:58:01.011Z,13.90
2017-10-25T21:00:30.807Z,13.90
2017-10-25T21:02:59.127Z,13.90
2017-10-25T21:05:28.652Z,13.90
2017-10-25T21:07:57.700Z,13.90
2017-10-25T21:10:26.025Z,13.90
2017-10-25T21:12:54.347Z,13.90
2017-10-25T21:15:23.441Z,13.80
2017-10-25T21:17:52.499Z,13.80
2017-10-25T21:20:20.834Z,13.80
2017-10-25T21:22:49.191Z,13.80
2017-10-25T21:25:17.472Z,13.80
2017-10-25T21:27:45.800Z,13.70
2017-10-25T21:30:16.042Z,13.70
2017-10-25T21:32:44.383Z,13.70
2017-10-25T21:35:12.664Z,13.60
2017-10-25T21:37:40.959Z,13.50
2017-10-25T21:40:09.333Z,13.40
2017-10-25T21:42:38.391Z,13.40
2017-10-25T21:45:06.706Z,13.40
2017-10-25T21:47:35.768Z,13.30
2017-10-25T21:50:04.091Z,13.30
2017-10-25T21:52:32.378Z,13.30
2017-10-25T21:55:00.731Z,13.20
2017-10-25T21:57:29.028Z,13.20
2017-10-25T21:59:57.341Z,13.10
2017-10-25T22:02:25.892Z,13.10
2017-10-25T22:04:54.983Z,13.00
2017-10-25T22:07:24.051Z,13.00
2017-10-25T22:09:52.359Z,13.00
2017-10-25T22:12:22.212Z,12.90
